Latest Coastal Weather Observations for Smithton

IDV60701

Issued at 5:12 pm EDT Wednesday 22 February 2017 (issued every 10 minutes, with the page automatically refreshed every 10 minutes)

About coastal observations | Map of coastal stations | Coastal observations for VIC | Marine services | Other Formats
Station Details ID: 091292 Name: SMITHTON AERODROME Lat: -40.83 Lon: 145.08 Height: 7.5 m
Data from the previous 72 hours. | See also: Recent months at Smithton
Date/Time
EDT
Temp
°C
Wind Pressure Rain since
9am
mm
Weather Cloud Vis
km
Sea
Height
m
Swell
Dir  Spd
kts
Gust
kts
hPa Trend Height
m
Period
s
Dir
22/05:00pm 20.1 ENE 20 31 1011.3 - 0.0 - - - - - - -
22/04:55pm 19.7 ENE 20 31 1011.4 - 0.0 - - - - - - -
22/04:30pm 19.3 ENE 21 28 1011.6 - 0.0 - - - - - - -
22/04:00pm 20.3 ENE 23 30 1011.8 - 0.0 - - - - - - -
22/03:40pm 20.2 ENE 22 32 1011.3 - 0.0 - - - - - - -
22/03:30pm 20.1 ENE 24 32 1011.5 - 0.0 - - - - - - -
22/03:00pm 20.1 ENE 22 29 1012.5 - 0.0 - - - - - - -
22/02:30pm 19.0 E 22 28 1013.2 - 0.0 - - - - - - -
22/02:00pm 20.3 ENE 20 30 1013.5 - 0.0 - - - - - - -
22/01:30pm 18.9 E 22 30 1014.0 - 0.0 - - - - - - -
22/01:00pm 19.6 ENE 19 27 1014.4 - 0.0 - - - - - - -
22/12:47pm 19.8 ENE 18 30 1014.6 - 0.0 - - - - - - -
22/12:30pm 19.0 ENE 21 27 1014.9 - 0.0 - - - - - - -
22/12:00pm 19.6 E 20 28 1015.3 - 0.0 - - - - - - -
22/11:30am 18.3 ENE 18 27 1015.8 - 0.0 - - - - - - -
22/11:01am 18.1 E 19 29 1015.5 - 0.0 - - - - - - -
22/11:00am 18.5 ENE 19 24 1015.6 - 0.0 - - - - - - -
22/10:30am 18.4 ENE 18 24 1015.9 - 0.0 - - - - - - -
22/10:00am 18.2 ENE 18 22 1016.3 - 0.0 - - - - - - -
22/09:30am 17.4 ENE 15 20 1016.6 - 0.0 - - - - - - -
22/09:00am 16.8 ENE 17 23 1016.4 - 0.0 - - - - - - -
22/08:30am 16.3 ENE 13 17 1016.3 - 0.0 - - - - - - -
22/08:00am 15.6 ENE 12 16 1016.3 - 0.0 - - - - - - -
22/07:30am 14.7 ENE 12 16 1016.4 - 0.0 - - - - - - -
22/07:00am 14.1 ENE 11 14 1016.5 - 0.0 - - - - - - -
22/06:30am 13.4 ENE 10 13 1016.3 - 0.0 - - - - - - -
22/06:00am 12.8 ENE 9 11 1016.2 - 0.0 - - - - - - -
22/05:30am 12.6 ENE 9 11 1016.3 - 0.0 - - - - - - -
22/05:00am 12.1 ENE 8 11 1016.6 - 0.0 - - - - - - -
22/04:30am 10.8 ENE 10 11 1016.5 - 0.0 - - - - - - -
22/04:21am 9.3 ENE 7 11 1016.6 - 0.0 - - - - - - -
22/04:00am 4.3 E 5 6 1017.0 - 0.0 - - - - - - -
22/03:30am 4.5 SW 2 4 1017.0 - 0.0 - - - - - - -
22/03:00am 4.5 SW 2 3 1017.3 - 0.0 - - - - - - -
22/02:30am 4.8 SW 4 5 1017.5 - 0.0 - - - - - - -
22/02:00am 6.0 SW 5 6 1017.6 - 0.0 - - - - - - -
22/01:30am 6.4 SW 4 4 1018.0 - 0.0 - - - - - - -
22/01:00am 5.9 SW 4 5 1018.4 - 0.0 - - - - - - -
22/12:30am 6.2 SW 3 4 1018.3 - 0.0 - - - - - - -
22/12:00am 6.2 SW 4 5 1018.7 - 0.0 - - - - - - -
 
Date/Time
EDT
Temp
°C
Wind Pressure Rain since
9am
mm
Weather Cloud Vis
km
Sea
Height
m
Swell
Dir  Spd
kts
Gust
kts
hPa Trend Height
m
Period
s
Dir
21/11:30pm 7.9 SW 4 4 1018.8 - 0.0 - - - - - - -
21/11:00pm 8.2 SW 4 4 1019.1 - 0.0 - - - - - - -
21/10:30pm 8.8 SW 3 4 1019.3 - 0.0 - - - - - - -
21/10:00pm 10.3 SW 4 5 1019.2 - 0.0 - - - - - - -
21/09:30pm 10.1 WSW 6 7 1019.4 - 0.0 - - - - - - -
21/09:00pm 11.0 WSW 7 8 1019.2 - 0.0 - - - - - - -
21/08:30pm 12.6 WSW 8 9 1018.8 - 0.0 - - - - - - -
21/08:00pm 14.6 WSW 10 12 1018.7 - 0.0 - - - - - - -
21/07:30pm 16.5 WSW 9 11 1018.6 - 0.0 - - - - - - -
21/07:00pm 17.5 WSW 11 14 1018.2 - 0.0 - - - - - - -
21/06:30pm 18.6 WSW 10 14 1018.0 - 0.0 - - - - - - -
21/06:00pm 19.1 W 11 14 1017.8 - 0.0 - - - - - - -
21/05:30pm 19.2 SW 9 13 1017.9 - 0.0 - - - - - - -
21/05:00pm 19.5 WSW 11 15 1018.1 - 0.0 - - - - - - -
21/04:30pm 19.6 SW 13 15 1018.4 - 0.0 - - - - - - -
21/04:00pm 19.8 W 12 16 1018.5 - 0.0 - - - - - - -
21/03:30pm 19.5 SW 12 15 1018.7 - 0.0 - - - - - - -
21/03:00pm 19.2 SW 11 16 1018.9 - 0.0 - - - - - - -
21/02:30pm 19.0 SW 10 15 1019.2 - 0.0 - - - - - - -
21/02:00pm 18.9 WSW 12 15 1019.4 - 0.0 - - - - - - -
21/01:30pm 18.4 SW 12 16 1019.4 - 0.0 - - - - - - -
21/01:00pm 18.3 WSW 12 18 1019.6 - 0.0 - - - - - - -
21/12:30pm 18.0 WSW 11 19 1019.7 - 0.0 - - - - - - -
21/12:00pm 18.3 W 10 14 1019.8 - 0.0 - - - - - - -
21/11:30am 17.5 SW 8 13 1019.8 - 0.0 - - - - - - -
21/11:00am 17.5 SW 9 13 1019.9 - 0.0 - - - - - - -
21/10:30am 17.2 SSW 12 16 1020.0 - 0.0 - - - - - - -
21/10:00am 16.9 S 12 15 1019.8 - 0.0 - - - - - - -
21/09:30am 15.6 SSW 10 13 1019.5 - 0.0 - - - - - - -
21/09:00am 14.8 SSW 7 14 1019.3 - 0.0 - - - - - - -
21/08:30am 12.7 SSW 5 6 1019.1 - 0.0 - - - - - - -
21/08:00am 10.9 SSW 5 6 1018.7 - 0.0 - - - - - - -
21/07:30am 8.2 SW 3 4 1018.4 - 0.0 - - - - - - -
21/07:00am 8.6 SW 4 5 1018.0 - 0.0 - - - - - - -
21/06:30am 7.3 SW 4 5 1017.4 - 0.0 - - - - - - -
21/06:00am 7.7 SW 5 6 1017.1 - 0.0 - - - - - - -
21/05:30am 10.1 SW 5 6 1016.5 - 0.0 - - - - - - -
21/05:00am 11.6 SW 4 5 1016.4 - 0.0 - - - - - - -
21/04:30am 11.7 WSW 8 14 1016.3 - 0.0 - - - - - - -
21/04:00am 10.3 WSW 4 6 1016.2 - 0.0 - - - - - - -
21/03:30am 10.4 SW 5 6 1015.8 - 0.0 - - - - - - -
21/03:00am 10.7 WSW 8 10 1015.7 - 0.0 - - - - - - -
21/02:30am 10.7 WSW 8 9 1015.4 - 0.0 - - - - - - -
21/02:00am 8.5 WSW 4 5 1015.0 - 0.0 - - - - - - -
21/01:30am 9.8 S 4 5 1015.1 - 0.0 - - - - - - -
21/01:00am 10.4 SSW 6 7 1015.0 - 0.0 - - - - - - -
21/12:30am 10.1 SW 7 7 1015.1 - 0.0 - - - - - - -
21/12:00am 11.3 WSW 10 12 1014.9 - 0.0 - - - - - - -
 
Date/Time
EDT
Temp
°C
Wind Pressure Rain since
9am
mm
Weather Cloud Vis
km
Sea
Height
m
Swell
Dir  Spd
kts
Gust
kts
hPa Trend Height
m
Period
s
Dir
20/11:30pm 11.5 WSW 10 12 1014.8 - 0.0 - - - - - - -
20/11:00pm 11.6 WSW 10 11 1014.6 - 0.0 - - - - - - -
20/10:30pm 11.6 SW 9 11 1014.3 - 0.0 - - - - - - -
20/10:00pm 11.9 SW 10 12 1014.1 - 0.0 - - - - - - -
20/09:30pm 12.2 SW 10 13 1014.0 - 0.0 - - - - - - -
20/09:00pm 12.5 SW 10 13 1013.6 - 0.0 - - - - - - -
20/08:30pm 13.7 SW 11 14 1013.1 - 0.0 - - - - - - -
20/08:00pm 14.7 SW 16 21 1012.6 - 0.0 - - - - - - -
20/07:30pm 15.8 SW 16 22 1012.0 - 0.0 - - - - - - -
20/07:00pm 16.7 SW 16 21 1011.4 - 0.0 - - - - - - -
20/06:30pm 17.7 SW 16 21 1011.0 - 0.0 - - - - - - -
20/06:00pm 18.1 SW 17 21 1010.6 - 0.0 - - - - - - -
20/05:30pm 18.5 SW 16 21 1010.1 - 0.0 - - - - - - -
20/05:00pm 19.0 SW 15 23 1009.6 - 0.0 - - - - - - -
20/04:30pm 19.1 WSW 17 22 1009.5 - 0.0 - - - - - - -
20/04:00pm 19.6 WSW 17 21 1009.3 - 0.0 - - - - - - -
20/03:30pm 19.3 WSW 16 22 1009.1 - 0.0 - - - - - - -
20/03:00pm 19.3 SW 16 22 1009.1 - 0.0 - - - - - - -
20/02:30pm 19.3 WSW 16 20 1009.1 - 0.0 - - - - - - -
20/02:00pm 18.3 WSW 16 20 1009.1 - 0.0 - - - - - - -
20/01:30pm 18.8 SW 16 22 1008.8 - 0.0 - - - - - - -
20/01:09pm 18.1 SW 15 25 1008.8 - 0.0 - - - - - - -
20/01:00pm 17.7 SW 13 17 1008.8 - 0.0 - - - - - - -
20/12:30pm 17.1 WSW 14 19 1009.1 - 0.0 - - - - - - -
20/12:00pm 16.9 SW 15 21 1009.3 - 0.0 - - - - - - -
20/11:30am 15.3 WSW 13 18 1009.5 - 0.0 - - - - - - -
20/11:00am 16.7 SW 14 20 1009.5 - 0.0 - - - - - - -
20/10:30am 15.9 SSW 13 17 1009.4 - 0.0 - - - - - - -
20/10:00am 14.2 SW 13 17 1009.3 - 0.0 - - - - - - -
20/09:30am 13.9 SSW 11 14 1009.0 - 0.0 - - - - - - -
20/09:00am 12.9 S 7 8 1009.0 - 2.0 - - - - - - -
20/08:30am 10.3 S 6 7 1008.7 - 2.0 - - - - - - -
20/08:00am 8.6 S 6 8 1008.5 - 1.8 - - - - - - -
20/07:30am 7.3 S 7 8 1008.0 - 1.8 - - - - - - -
20/07:00am 6.8 S 6 7 1007.8 - 1.8 - - - - - - -
20/06:30am 5.9 SSW 7 8 1007.7 - 1.8 - - - - - - -
20/06:00am 6.1 S 8 9 1007.5 - 1.8 - - - - - - -
20/05:30am 6.3 S 7 8 1007.2 - 1.8 - - - - - - -
20/05:00am 6.5 S 6 7 1007.2 - 1.8 - - - - - - -
20/04:30am 6.0 S 6 7 1007.3 - 1.8 - - - - - - -
20/04:00am 4.6 S 6 7 1007.3 - 1.8 - - - - - - -
20/03:30am 5.2 S 6 7 1007.1 - 1.8 - - - - - - -
20/03:00am 5.3 SSW 6 8 1007.0 - 1.8 - - - - - - -
20/02:30am 5.4 SSW 8 9 1006.9 - 1.8 - - - - - - -
20/02:00am 6.0 SSW 8 9 1007.0 - 1.8 - - - - - - -
20/01:30am 6.1 SSW 7 7 1006.8 - 1.8 - - - - - - -
20/01:00am 6.2 SSW 7 8 1006.8 - 1.8 - - - - - - -
20/12:30am 6.3 SW 8 9 1007.0 - 1.8 - - - - - - -
20/12:00am 6.4 SW 6 7 1006.9 - 1.8 - - - - - - -
 
Date/Time
EDT
Temp
°C
Wind Pressure Rain since
9am
mm
Weather Cloud Vis
km
Sea
Height
m
Swell
Dir  Spd
kts
Gust
kts
hPa Trend Height
m
Period
s
Dir
19/11:30pm 6.8 SSW 6 8 1007.0 - 1.8 - - - - - - -
19/11:00pm 7.0 S 5 6 1007.1 - 1.8 - - - - - - -
19/10:30pm 8.0 SSW 5 6 1007.1 - 1.8 - - - - - - -
19/10:00pm 8.3 SSW 7 8 1007.1 - 1.8 - - - - - - -
19/09:30pm 8.3 SW 5 6 1006.7 - 1.8 - - - - - - -
19/09:00pm 9.7 S 7 9 1006.3 - 1.8 - - - - - - -
19/08:30pm 10.3 SSW 6 8 1006.1 - 1.8 - - - - - - -
19/08:00pm 11.0 SW 6 7 1005.7 - 1.8 - - - - - - -
19/07:30pm 11.0 SW 8 10 1005.2 - 1.8 - - - - - - -
19/07:00pm 11.5 SSW 11 15 1004.7 - 1.6 - - - - - - -
19/06:30pm 12.6 SSW 8 13 1004.3 - 1.6 - - - - - - -
19/06:00pm 12.5 SSW 8 9 1003.9 - 1.6 - - - - - - -
19/05:30pm 13.9 SSE 6 8 1003.9 - 1.6 - - - - - - -

Other Formats:

Comma delimited format used in spreadsheet applications
http://www.bom.gov.au/fwo/IDV60701/IDV60701.94953.axf

JavaScript Object Notation format (JSON) in row-major order
http://www.bom.gov.au/fwo/IDV60701/IDV60701.94953.json